3OK6 weather

CLOSED Mauney Heliport
Tulsa, Oklahoma, United States

Public forecast

Using degrees Fahrenheit for public forecast. Weather courtesy of forecast.io.

METAR (pilot weather report)

Closest report is Richard Lloyd Jones Jr Airport, 6.5 nm (12.1 km) WSW. Retrieved 2019/04/26 14:53 UTC (40 minutes ago):

KRVS 261453Z 01005KT 10SM CLR 19/07 A3018 RMK AO2 SLP226 T01940072 51009

TAF (pilot weather forecast)

Closest forecast is Richard Lloyd Jones Jr Airport, 6.5 nm (12.1 km) WSW. Retrieved 2019/04/26 12:22 UTC (3 hours ago):

TAF KRVS 261120Z 2612/2712 00000KT P6SM FEW250 FM262000 14006KT P6SM SCT250 FM270700 18008KT P6SM BKN100